createdAt,value
2023-06-29T00:01:58.359Z,8.05
2023-06-29T00:04:26.705Z,7.55
2023-06-29T00:06:55.446Z,8.02
2023-06-29T00:09:25.624Z,7.22
2023-06-29T00:11:52.385Z,8.43
2023-06-29T00:14:19.147Z,7.82
2023-06-29T00:16:45.988Z,7.90
2023-06-29T00:19:15.574Z,9.00
2023-06-29T00:21:42.378Z,8.98
2023-06-29T00:24:12.175Z,8.05
2023-06-29T00:26:39.463Z,8.93
2023-06-29T00:29:06.702Z,9.32
2023-06-29T00:31:33.677Z,8.68
2023-06-29T00:34:00.557Z,8.90
2023-06-29T00:36:27.400Z,9.10
2023-06-29T00:38:54.294Z,9.07
2023-06-29T00:41:21.156Z,9.85
2023-06-29T00:43:47.917Z,9.75
2023-06-29T00:46:19.888Z,9.65
2023-06-29T00:48:47.517Z,8.75
2023-06-29T00:51:17.180Z,9.45
2023-06-29T00:53:44.617Z,8.98
2023-06-29T00:56:11.455Z,8.52
2023-06-29T00:58:38.856Z,9.15
2023-06-29T01:01:05.683Z,9.77
2023-06-29T01:03:32.656Z,8.55
2023-06-29T01:06:05.286Z,9.30
2023-06-29T01:08:44.286Z,9.38
2023-06-29T01:11:12.451Z,9.60
2023-06-29T01:13:42.238Z,9.55
2023-06-29T01:16:09.952Z,9.30
2023-06-29T01:18:38.234Z,9.98
2023-06-29T01:21:05.045Z,9.93
2023-06-29T01:23:38.446Z,9.82
2023-06-29T01:26:06.461Z,9.45
2023-06-29T01:28:39.379Z,9.43
2023-06-29T01:31:06.684Z,9.43
2023-06-29T01:33:34.921Z,9.30
2023-06-29T01:36:16.626Z,9.60
2023-06-29T01:41:17.783Z,8.73
2023-06-29T01:43:46.037Z,9.40
2023-06-29T01:46:13.861Z,9.30
2023-06-29T01:48:41.664Z,8.20
2023-06-29T01:51:09.860Z,8.43
2023-06-29T01:53:38.595Z,9.20
2023-06-29T01:56:05.879Z,8.25
2023-06-29T01:58:32.646Z,8.77
2023-06-29T02:00:59.470Z,8.90
2023-06-29T02:03:26.278Z,8.93
2023-06-29T02:05:53.093Z,8.93
2023-06-29T02:08:19.843Z,8.60
2023-06-29T02:10:46.665Z,8.65
2023-06-29T02:13:13.585Z,9.00
2023-06-29T02:15:40.403Z,8.40
2023-06-29T02:18:07.221Z,8.70
2023-06-29T02:20:34.016Z,8.27
2023-06-29T02:23:00.822Z,8.05
2023-06-29T02:25:27.607Z,8.57
2023-06-29T02:27:54.344Z,8.00
2023-06-29T02:30:21.132Z,8.75
2023-06-29T02:32:47.881Z,8.45
2023-06-29T02:35:14.660Z,9.00
2023-06-29T02:37:41.427Z,8.73
2023-06-29T02:40:08.910Z,7.43
2023-06-29T02:42:35.838Z,8.40
2023-06-29T02:45:02.852Z,8.52
2023-06-29T02:47:29.775Z,8.70
2023-06-29T02:49:56.574Z,8.10
2023-06-29T02:52:23.313Z,9.25
2023-06-29T02:54:50.456Z,9.55
2023-06-29T02:57:17.246Z,9.15
2023-06-29T02:59:44.012Z,10.25
2023-06-29T03:02:10.910Z,9.80
2023-06-29T03:04:37.733Z,9.65
2023-06-29T03:07:07.111Z,9.48
2023-06-29T03:09:34.750Z,9.23
2023-06-29T03:12:01.553Z,8.70
2023-06-29T03:14:28.307Z,8.50
2023-06-29T03:16:55.109Z,8.88
2023-06-29T03:19:22.003Z,8.38
2023-06-29T03:21:48.759Z,8.90
2023-06-29T03:24:15.542Z,8.85
2023-06-29T03:26:42.312Z,8.70
2023-06-29T03:29:09.274Z,9.30
2023-06-29T03:31:36.028Z,8.38
2023-06-29T03:34:02.812Z,9.60
2023-06-29T03:36:29.656Z,8.82
2023-06-29T03:38:56.415Z,9.65
2023-06-29T03:41:23.196Z,9.63
2023-06-29T03:43:50.009Z,8.93
2023-06-29T03:46:16.754Z,9.63
2023-06-29T03:48:43.603Z,9.68
2023-06-29T03:51:10.476Z,9.60
2023-06-29T03:53:37.221Z,8.55
2023-06-29T03:56:04.316Z,8.82
2023-06-29T03:58:31.062Z,9.43
2023-06-29T04:22:59.021Z,7.93
2023-06-29T04:25:25.833Z,9.05
2023-06-29T04:27:52.730Z,9.05
2023-06-29T04:30:19.496Z,8.93
2023-06-29T04:32:47.844Z,8.18
2023-06-29T04:35:14.682Z,9.13
2023-06-29T04:37:42.194Z,8.95
2023-06-29T04:40:10.971Z,8.95
2023-06-29T04:42:49.072Z,8.98
2023-06-29T04:45:20.228Z,8.65
2023-06-29T04:47:50.887Z,9.63
2023-06-29T04:50:27.204Z,9.37
2023-06-29T04:52:59.596Z,9.73
2023-06-29T04:55:26.928Z,10.55
2023-06-29T04:57:53.809Z,9.65
2023-06-29T05:00:21.111Z,9.43
2023-06-29T05:02:47.956Z,10.88
2023-06-29T05:05:14.800Z,9.70
2023-06-29T05:07:42.600Z,10.55
2023-06-29T05:10:09.779Z,10.73
2023-06-29T05:12:36.576Z,10.32
2023-06-29T05:15:03.558Z,10.18
2023-06-29T05:17:31.058Z,10.00
2023-06-29T05:19:59.051Z,10.05
2023-06-29T05:22:25.833Z,10.88
2023-06-29T05:24:52.606Z,10.63
2023-06-29T05:27:19.456Z,10.77
2023-06-29T05:29:46.209Z,10.75
2023-06-29T05:32:13.002Z,10.38
2023-06-29T05:34:39.754Z,11.23
2023-06-29T05:37:06.614Z,10.57
2023-06-29T05:39:33.451Z,9.93
2023-06-29T05:42:00.266Z,10.77
2023-06-29T05:44:27.023Z,10.55
2023-06-29T05:46:53.827Z,10.02
2023-06-29T05:49:20.593Z,9.73
2023-06-29T05:51:47.330Z,11.23
2023-06-29T05:54:14.124Z,10.85
2023-06-29T05:56:40.879Z,11.38
2023-06-29T05:59:07.613Z,12.15
2023-06-29T06:01:36.199Z,12.38
2023-06-29T06:04:07.012Z,11.40
2023-06-29T06:06:33.921Z,11.52
2023-06-29T06:09:00.704Z,11.30
2023-06-29T06:11:27.539Z,11.75
2023-06-29T06:13:54.355Z,10.48
2023-06-29T06:16:21.998Z,11.80
2023-06-29T06:18:48.865Z,11.10
2023-06-29T06:21:15.623Z,11.55
2023-06-29T06:23:42.826Z,11.40
2023-06-29T06:26:09.598Z,12.05
2023-06-29T06:28:36.391Z,11.70
2023-06-29T06:31:03.137Z,11.32
2023-06-29T06:33:31.259Z,11.20
2023-06-29T06:36:00.418Z,12.13
2023-06-29T06:38:40.832Z,10.68
2023-06-29T06:41:11.785Z,10.95
2023-06-29T06:43:38.547Z,11.98
2023-06-29T06:46:05.300Z,10.15
2023-06-29T06:48:32.069Z,12.32
2023-06-29T06:50:58.872Z,12.02
2023-06-29T06:53:25.970Z,11.32
2023-06-29T06:55:53.033Z,12.50
2023-06-29T06:58:19.807Z,11.57
2023-06-29T07:00:46.825Z,10.98
2023-06-29T07:03:13.947Z,11.48
2023-06-29T07:05:40.751Z,11.50
2023-06-29T07:08:07.619Z,10.85
2023-06-29T07:10:34.385Z,11.75
2023-06-29T07:13:01.154Z,10.65
2023-06-29T07:15:28.004Z,10.90
2023-06-29T07:17:54.937Z,12.43
2023-06-29T07:25:21.412Z,11.50
2023-06-29T07:27:48.182Z,11.50
2023-06-29T07:30:15.155Z,11.73
2023-06-29T07:32:41.969Z,10.63
2023-06-29T07:35:09.442Z,11.73
2023-06-29T07:37:36.329Z,11.93
2023-06-29T07:40:05.405Z,11.93
2023-06-29T07:42:39.404Z,12.15
2023-06-29T07:45:07.974Z,11.55
2023-06-29T07:47:34.957Z,11.50
2023-06-29T07:50:01.772Z,12.35
2023-06-29T07:52:28.626Z,11.73
2023-06-29T07:54:55.381Z,13.43
2023-06-29T07:59:51.829Z,12.90
2023-06-29T08:02:18.717Z,12.40
2023-06-29T08:07:15.282Z,10.85
2023-06-29T08:09:42.195Z,12.25
2023-06-29T08:12:09.306Z,12.05
2023-06-29T08:14:36.437Z,11.85
2023-06-29T08:17:04.576Z,11.85
2023-06-29T08:19:31.391Z,11.95
2023-06-29T08:21:58.243Z,10.23
2023-06-29T08:24:25.000Z,10.75
2023-06-29T08:26:51.955Z,10.88
2023-06-29T08:29:18.876Z,10.32
2023-06-29T08:31:45.634Z,12.05
2023-06-29T08:34:12.582Z,10.32
2023-06-29T08:36:39.402Z,10.38
2023-06-29T08:39:06.587Z,11.18
2023-06-29T08:41:33.380Z,10.88
2023-06-29T08:44:00.185Z,10.45
2023-06-29T08:46:29.135Z,10.18
2023-06-29T08:48:56.408Z,10.75
2023-06-29T08:51:23.845Z,10.98
2023-06-29T08:53:51.143Z,11.15
2023-06-29T08:56:18.298Z,11.77
2023-06-29T08:58:45.529Z,11.70
2023-06-29T09:01:13.137Z,11.73
2023-06-29T09:03:41.096Z,11.23
2023-06-29T09:06:09.793Z,10.73
2023-06-29T09:08:38.334Z,10.77
2023-06-29T09:11:05.295Z,11.00
2023-06-29T09:13:34.399Z,10.93
2023-06-29T09:16:01.747Z,11.50
2023-06-29T09:18:29.998Z,11.13
2023-06-29T09:20:57.594Z,11.60
2023-06-29T09:23:34.397Z,10.32
2023-06-29T09:26:05.994Z,10.80
2023-06-29T09:28:36.411Z,11.55
2023-06-29T09:31:13.555Z,11.48
2023-06-29T09:33:40.563Z,11.63
2023-06-29T09:36:09.461Z,11.73
2023-06-29T09:38:37.305Z,12.20
2023-06-29T09:41:07.672Z,10.77
2023-06-29T09:43:34.464Z,11.90
2023-06-29T09:46:09.792Z,12.02
2023-06-29T09:51:24.459Z,12.15
2023-06-29T09:53:51.663Z,12.85
2023-06-29T09:56:18.750Z,12.15
2023-06-29T09:58:47.373Z,12.00
2023-06-29T10:01:16.795Z,11.40
2023-06-29T10:03:44.808Z,12.98
2023-06-29T10:06:37.437Z,11.52
2023-06-29T10:09:05.859Z,10.95
2023-06-29T10:11:36.306Z,10.98
2023-06-29T10:14:08.009Z,11.65
2023-06-29T10:16:46.486Z,11.73
2023-06-29T10:19:20.807Z,11.50
2023-06-29T10:21:54.033Z,11.88
2023-06-29T10:24:26.073Z,12.27
2023-06-29T10:26:53.842Z,11.15
2023-06-29T10:29:20.740Z,11.18
2023-06-29T10:31:49.648Z,11.93
2023-06-29T10:34:16.455Z,10.75
2023-06-29T10:36:50.002Z,10.90
2023-06-29T10:39:38.614Z,10.02
2023-06-29T10:42:13.712Z,10.68
2023-06-29T10:44:40.573Z,10.25
2023-06-29T10:47:07.356Z,9.82
2023-06-29T10:49:34.205Z,9.43
2023-06-29T10:52:05.834Z,9.25
2023-06-29T10:54:32.880Z,9.50
2023-06-29T10:57:02.981Z,9.38
2023-06-29T10:59:31.048Z,10.05
2023-06-29T11:01:58.867Z,9.68
2023-06-29T11:04:25.921Z,10.00
2023-06-29T11:06:53.078Z,10.15
2023-06-29T11:09:20.667Z,9.82
2023-06-29T11:11:49.787Z,10.02
2023-06-29T11:14:18.463Z,10.35
2023-06-29T11:16:45.436Z,9.55
2023-06-29T11:19:13.626Z,9.50
2023-06-29T11:21:41.969Z,10.02
2023-06-29T11:24:11.199Z,9.27
2023-06-29T11:26:38.361Z,9.57
2023-06-29T11:29:09.209Z,9.15
2023-06-29T11:31:36.011Z,9.30
2023-06-29T11:34:02.855Z,9.35
2023-06-29T11:36:34.477Z,9.32
2023-06-29T11:39:13.012Z,9.55
2023-06-29T11:41:42.142Z,9.15
2023-06-29T11:44:11.531Z,9.18
2023-06-29T11:46:54.322Z,9.25
2023-06-29T11:49:26.391Z,9.57
2023-06-29T11:51:53.945Z,8.82
2023-06-29T11:54:21.018Z,9.30
2023-06-29T11:56:49.938Z,8.80
2023-06-29T11:59:16.968Z,8.90
2023-06-29T12:01:48.290Z,9.32
2023-06-29T12:04:15.661Z,9.50
2023-06-29T12:06:53.752Z,9.93
2023-06-29T12:09:21.302Z,8.85
2023-06-29T12:12:02.196Z,9.75
2023-06-29T12:14:33.866Z,9.18
2023-06-29T12:19:35.593Z,8.70
2023-06-29T12:22:05.321Z,9.43
2023-06-29T12:24:34.179Z,8.05
2023-06-29T12:27:01.389Z,7.78
2023-06-29T12:29:28.249Z,8.40
2023-06-29T12:32:01.889Z,8.43
2023-06-29T12:34:32.238Z,8.93
2023-06-29T12:36:59.056Z,8.25
2023-06-29T12:39:25.867Z,8.52
2023-06-29T12:41:53.275Z,8.27
2023-06-29T12:44:20.022Z,9.45
2023-06-29T12:46:46.859Z,8.65
2023-06-29T12:49:13.693Z,8.68
2023-06-29T12:51:40.448Z,9.18
2023-06-29T12:54:10.491Z,9.30
2023-06-29T12:56:39.259Z,9.23
2023-06-29T12:59:06.015Z,9.25
2023-06-29T13:01:32.825Z,9.13
2023-06-29T13:03:59.695Z,9.77
2023-06-29T13:06:26.605Z,9.45
2023-06-29T13:08:54.179Z,9.38
2023-06-29T13:11:21.709Z,10.40
2023-06-29T13:13:48.543Z,9.48
2023-06-29T13:16:15.371Z,10.57
2023-06-29T13:18:42.221Z,9.40
2023-06-29T13:21:08.981Z,10.15
2023-06-29T13:23:35.818Z,11.50
2023-06-29T13:26:02.890Z,10.63
2023-06-29T13:28:30.363Z,9.82
2023-06-29T13:30:58.537Z,10.90
2023-06-29T13:33:25.382Z,10.73
2023-06-29T13:35:52.128Z,11.05
2023-06-29T13:38:19.346Z,9.85
2023-06-29T13:40:46.125Z,10.00
2023-06-29T13:43:12.913Z,10.77
2023-06-29T13:45:39.697Z,10.18
2023-06-29T13:48:06.798Z,10.45
2023-06-29T13:50:41.573Z,11.32
2023-06-29T13:53:09.909Z,12.18
2023-06-29T13:55:37.597Z,11.57
2023-06-29T13:58:04.381Z,11.68
2023-06-29T14:00:31.151Z,11.45
2023-06-29T14:02:58.149Z,10.65
2023-06-29T14:05:25.078Z,11.40
2023-06-29T14:07:51.848Z,11.65
2023-06-29T14:10:18.609Z,10.98
2023-06-29T14:12:45.577Z,11.05
2023-06-29T14:15:12.448Z,10.63
2023-06-29T14:17:39.420Z,11.68
2023-06-29T14:20:07.468Z,11.57
2023-06-29T14:22:35.008Z,11.60
2023-06-29T14:25:03.301Z,11.68
2023-06-29T14:27:30.205Z,11.60
2023-06-29T14:29:56.967Z,12.65
2023-06-29T14:32:23.748Z,12.40
2023-06-29T14:34:50.987Z,12.10
2023-06-29T14:37:18.085Z,12.45
2023-06-29T14:39:44.852Z,11.85
2023-06-29T14:42:11.593Z,11.38
2023-06-29T14:44:38.967Z,11.38
2023-06-29T14:47:06.132Z,11.65
2023-06-29T14:49:32.874Z,11.43
2023-06-29T14:51:59.745Z,11.85
2023-06-29T14:54:26.675Z,11.82
2023-06-29T14:56:53.542Z,12.65
2023-06-29T14:59:22.005Z,13.88
2023-06-29T15:01:48.988Z,12.43
2023-06-29T15:04:15.854Z,12.55
2023-06-29T15:06:43.394Z,13.10
2023-06-29T15:09:10.196Z,12.18
2023-06-29T15:11:36.948Z,12.57
2023-06-29T15:14:03.691Z,12.93
2023-06-29T15:16:30.774Z,13.63
2023-06-29T15:19:00.341Z,13.75
2023-06-29T15:21:27.772Z,12.93
2023-06-29T15:23:54.913Z,14.07
2023-06-29T15:26:23.797Z,12.95
2023-06-29T15:28:50.718Z,13.45
2023-06-29T15:31:17.486Z,12.82
2023-06-29T15:33:44.303Z,12.38
2023-06-29T15:36:11.076Z,13.27
2023-06-29T15:38:38.179Z,12.05
2023-06-29T15:41:04.992Z,12.75
2023-06-29T15:43:32.326Z,13.07
2023-06-29T15:45:59.078Z,12.45
2023-06-29T15:48:26.004Z,11.73
2023-06-29T15:50:52.870Z,12.30
2023-06-29T15:53:19.977Z,11.68
2023-06-29T15:55:47.100Z,12.02
2023-06-29T15:58:14.096Z,11.73
2023-06-29T16:00:40.916Z,11.40
2023-06-29T16:03:07.785Z,11.25
2023-06-29T16:05:35.874Z,12.40
2023-06-29T16:08:03.311Z,13.13
2023-06-29T16:10:30.164Z,13.55
2023-06-29T16:12:57.067Z,13.40
2023-06-29T16:15:23.830Z,13.38
2023-06-29T16:17:50.738Z,13.20
2023-06-29T16:20:17.890Z,15.02
2023-06-29T16:22:44.824Z,14.38
2023-06-29T16:25:11.627Z,15.90
2023-06-29T16:27:38.383Z,16.35
2023-06-29T16:30:07.346Z,16.45
2023-06-29T16:32:34.255Z,16.90
2023-06-29T16:35:01.135Z,16.75
2023-06-29T16:37:28.001Z,16.73
2023-06-29T16:39:54.832Z,17.23
2023-06-29T16:42:21.593Z,19.08
2023-06-29T16:44:48.362Z,18.58
2023-06-29T16:47:15.137Z,19.08
2023-06-29T16:49:42.031Z,19.00
2023-06-29T16:52:09.269Z,18.20
2023-06-29T16:54:36.143Z,19.42
2023-06-29T16:57:03.089Z,21.45
2023-06-29T16:59:29.837Z,21.08
2023-06-29T17:01:57.698Z,20.73
2023-06-29T17:04:25.865Z,20.77
2023-06-29T17:06:52.869Z,20.55
2023-06-29T17:09:19.692Z,21.63
2023-06-29T17:11:46.556Z,19.50
2023-06-29T17:14:13.350Z,19.63
2023-06-29T17:16:40.242Z,19.52
2023-06-29T17:19:07.304Z,19.73
2023-06-29T17:21:34.112Z,20.20
2023-06-29T17:24:01.739Z,20.20
2023-06-29T17:26:28.844Z,17.98
2023-06-29T17:28:55.876Z,18.10
2023-06-29T17:31:22.701Z,17.85
2023-06-29T17:33:55.314Z,17.98
2023-06-29T17:36:23.915Z,18.00
2023-06-29T17:38:51.038Z,18.08
2023-06-29T17:41:17.813Z,17.35
2023-06-29T17:43:44.621Z,16.80
2023-06-29T17:46:11.552Z,15.75
2023-06-29T17:48:38.342Z,16.80
2023-06-29T17:51:16.954Z,17.58
2023-06-29T17:53:47.693Z,16.67
2023-06-29T17:56:17.673Z,15.90
2023-06-29T17:58:45.825Z,17.27
2023-06-29T18:01:13.739Z,16.77
2023-06-29T18:03:41.513Z,16.27
2023-06-29T18:06:08.685Z,16.52
2023-06-29T18:08:35.642Z,16.45
2023-06-29T18:11:02.443Z,16.80
2023-06-29T18:13:29.227Z,16.27
2023-06-29T18:15:56.165Z,17.13
2023-06-29T18:18:22.961Z,17.98
2023-06-29T18:20:49.742Z,17.15
2023-06-29T18:23:16.511Z,18.05
2023-06-29T18:25:43.802Z,17.60
2023-06-29T18:28:10.779Z,17.40
2023-06-29T18:30:37.589Z,17.45
2023-06-29T18:33:04.600Z,18.60
2023-06-29T18:35:31.436Z,16.70
2023-06-29T18:37:58.180Z,19.30
2023-06-29T18:40:28.067Z,18.30
2023-06-29T18:42:55.118Z,17.83
2023-06-29T18:45:24.104Z,18.02
2023-06-29T18:47:51.028Z,17.77
2023-06-29T18:50:17.894Z,19.00
2023-06-29T18:52:44.635Z,19.00
2023-06-29T18:55:11.506Z,17.40
2023-06-29T18:57:38.298Z,19.25
2023-06-29T19:00:07.860Z,18.35
2023-06-29T19:02:34.715Z,19.08
2023-06-29T19:05:03.677Z,19.40
2023-06-29T19:07:30.485Z,19.13
2023-06-29T19:09:57.307Z,18.45
2023-06-29T19:12:24.076Z,18.05
2023-06-29T19:14:50.878Z,18.20
2023-06-29T19:17:17.675Z,19.92
2023-06-29T19:19:45.003Z,19.40
2023-06-29T19:22:11.860Z,19.92
2023-06-29T19:24:38.840Z,20.13
2023-06-29T19:27:06.882Z,19.67
2023-06-29T19:29:33.992Z,21.30
2023-06-29T19:32:00.815Z,19.25
2023-06-29T19:34:27.590Z,19.45
2023-06-29T19:36:54.410Z,20.10
2023-06-29T19:39:21.216Z,19.38
2023-06-29T19:41:47.965Z,20.83
2023-06-29T19:44:15.081Z,20.65
2023-06-29T19:46:41.912Z,19.35
2023-06-29T19:49:08.697Z,19.58
2023-06-29T19:51:37.605Z,19.50
2023-06-29T19:54:04.405Z,19.95
2023-06-29T19:56:31.304Z,20.27
2023-06-29T19:58:58.103Z,18.67
2023-06-29T20:01:24.885Z,19.27
2023-06-29T20:03:51.763Z,19.70
2023-06-29T20:06:18.631Z,18.42
2023-06-29T20:08:45.389Z,17.90
2023-06-29T20:11:12.249Z,18.42
2023-06-29T20:13:39.054Z,16.75
2023-06-29T20:16:06.292Z,17.35
2023-06-29T20:18:33.120Z,17.83
2023-06-29T20:20:59.893Z,18.15
2023-06-29T20:23:26.654Z,15.98
2023-06-29T20:25:53.416Z,15.88
2023-06-29T20:28:20.818Z,15.30
2023-06-29T20:30:47.586Z,15.73
2023-06-29T20:33:14.383Z,11.68
2023-06-29T20:35:41.292Z,10.52
2023-06-29T20:38:09.009Z,9.27
2023-06-29T20:40:35.789Z,9.18
2023-06-29T20:43:02.639Z,8.30
2023-06-29T20:45:29.751Z,8.60
2023-06-29T20:47:57.807Z,8.50
2023-06-29T20:50:24.621Z,7.82
2023-06-29T20:52:52.654Z,7.47
2023-06-29T20:55:19.402Z,7.18
2023-06-29T20:57:46.259Z,7.18
2023-06-29T21:00:14.070Z,7.85
2023-06-29T21:02:41.887Z,8.15
2023-06-29T21:05:09.916Z,7.35
2023-06-29T21:07:37.020Z,7.70
2023-06-29T21:10:04.234Z,7.35
2023-06-29T21:12:31.386Z,7.93
2023-06-29T21:14:58.912Z,7.32
2023-06-29T21:17:26.175Z,7.05
2023-06-29T21:19:53.338Z,6.90
2023-06-29T21:22:20.750Z,6.85
2023-06-29T21:24:48.293Z,6.95
2023-06-29T21:27:19.013Z,6.90
2023-06-29T21:29:47.618Z,5.97
2023-06-29T21:32:15.777Z,5.93
2023-06-29T21:34:42.949Z,5.55
2023-06-29T21:37:10.818Z,5.60
2023-06-29T21:39:37.570Z,5.53
2023-06-29T21:42:05.045Z,5.07
2023-06-29T21:44:31.901Z,5.07
2023-06-29T21:47:01.380Z,5.05
2023-06-29T21:49:28.328Z,4.28
2023-06-29T21:51:55.262Z,4.30
2023-06-29T21:54:22.030Z,4.28
2023-06-29T21:56:50.459Z,4.40
2023-06-29T21:59:17.259Z,4.13
2023-06-29T22:01:44.106Z,4.25
2023-06-29T22:04:11.199Z,4.05
2023-06-29T22:06:38.175Z,4.35
2023-06-29T22:09:04.924Z,4.25
2023-06-29T22:11:31.801Z,4.53
2023-06-29T22:13:58.560Z,4.03
2023-06-29T22:16:25.669Z,3.15
2023-06-29T22:18:52.794Z,3.22
2023-06-29T22:21:21.940Z,2.70
2023-06-29T22:23:50.787Z,2.90
2023-06-29T22:26:18.621Z,2.50
2023-06-29T22:28:45.813Z,2.88
2023-06-29T22:31:14.998Z,2.70
2023-06-29T22:33:41.872Z,2.63
2023-06-29T22:36:08.714Z,2.70
2023-06-29T22:38:36.117Z,2.67
2023-06-29T22:41:03.008Z,2.88
2023-06-29T22:43:29.798Z,3.00
2023-06-29T22:45:56.612Z,3.05
2023-06-29T22:48:23.677Z,2.80
2023-06-29T22:50:50.504Z,2.85
2023-06-29T22:53:17.321Z,2.58
2023-06-29T22:55:44.947Z,2.65
2023-06-29T22:58:11.872Z,2.40
2023-06-29T23:00:38.833Z,2.75
2023-06-29T23:03:05.704Z,2.90
2023-06-29T23:05:32.588Z,3.15
2023-06-29T23:07:59.479Z,3.30
2023-06-29T23:10:28.507Z,2.70
2023-06-29T23:12:55.302Z,2.90
2023-06-29T23:15:26.866Z,2.80
2023-06-29T23:17:56.481Z,2.78
2023-06-29T23:20:28.190Z,3.05
2023-06-29T23:22:55.044Z,3.05
2023-06-29T23:25:21.858Z,2.90
2023-06-29T23:27:48.698Z,2.50
2023-06-29T23:30:16.598Z,2.30
2023-06-29T23:32:50.873Z,2.70
2023-06-29T23:35:18.138Z,2.58
2023-06-29T23:37:45.176Z,3.00
2023-06-29T23:40:12.552Z,2.97
2023-06-29T23:42:40.098Z,2.63
2023-06-29T23:45:11.902Z,3.08
2023-06-29T23:50:12.128Z,2.90
2023-06-29T23:52:39.476Z,2.90
2023-06-29T23:55:09.117Z,3.50
2023-06-29T23:57:35.955Z,2.97
